sensor_id;sensor_type;location;lat;lon;timestamp;P1;durP1;ratioP1;P2;durP2;ratioP2
15393;SDS011;7795;47.986;11.868;2024-02-28T00:01:04;6.43;;;5.73;;
15393;SDS011;7795;47.986;11.868;2024-02-28T00:03:29;7.63;;;6.50;;
15393;SDS011;7795;47.986;11.868;2024-02-28T00:05:57;8.37;;;7.23;;
15393;SDS011;7795;47.986;11.868;2024-02-28T00:08:22;11.17;;;7.07;;
15393;SDS011;7795;47.986;11.868;2024-02-28T00:10:48;7.77;;;6.60;;
15393;SDS011;7795;47.986;11.868;2024-02-28T00:13:14;9.20;;;7.50;;
15393;SDS011;7795;47.986;11.868;2024-02-28T00:15:40;7.83;;;7.03;;
15393;SDS011;7795;47.986;11.868;2024-02-28T00:18:08;7.60;;;6.80;;
15393;SDS011;7795;47.986;11.868;2024-02-28T00:20:35;8.20;;;6.50;;
15393;SDS011;7795;47.986;11.868;2024-02-28T00:23:00;9.10;;;7.10;;
15393;SDS011;7795;47.986;11.868;2024-02-28T00:25:26;8.00;;;7.20;;
15393;SDS011;7795;47.986;11.868;2024-02-28T00:27:52;8.80;;;7.80;;
15393;SDS011;7795;47.986;11.868;2024-02-28T00:30:18;10.00;;;8.70;;
15393;SDS011;7795;47.986;11.868;2024-02-28T00:32:43;10.73;;;8.47;;
15393;SDS011;7795;47.986;11.868;2024-02-28T00:35:10;12.27;;;10.00;;
15393;SDS011;7795;47.986;11.868;2024-02-28T00:37:36;12.13;;;9.63;;
15393;SDS011;7795;47.986;11.868;2024-02-28T00:40:02;11.70;;;9.23;;
15393;SDS011;7795;47.986;11.868;2024-02-28T00:42:29;12.00;;;10.40;;
15393;SDS011;7795;47.986;11.868;2024-02-28T00:44:55;11.83;;;10.40;;
15393;SDS011;7795;47.986;11.868;2024-02-28T00:47:20;11.63;;;9.33;;
15393;SDS011;7795;47.986;11.868;2024-02-28T00:49:46;11.80;;;10.13;;
15393;SDS011;7795;47.986;11.868;2024-02-28T00:52:13;12.10;;;9.83;;
15393;SDS011;7795;47.986;11.868;2024-02-28T00:54:39;10.00;;;8.80;;
15393;SDS011;7795;47.986;11.868;2024-02-28T00:57:05;11.90;;;10.17;;
15393;SDS011;7795;47.986;11.868;2024-02-28T00:59:30;10.17;;;8.37;;
15393;SDS011;7795;47.986;11.868;2024-02-28T01:01:56;10.60;;;8.97;;
15393;SDS011;7795;47.986;11.868;2024-02-28T01:04:22;11.60;;;9.87;;
15393;SDS011;7795;47.986;11.868;2024-02-28T01:06:47;12.23;;;10.10;;
15393;SDS011;7795;47.986;11.868;2024-02-28T01:09:14;12.50;;;9.13;;
15393;SDS011;7795;47.986;11.868;2024-02-28T01:11:40;11.73;;;9.93;;
15393;SDS011;7795;47.986;11.868;2024-02-28T01:14:06;11.73;;;9.77;;
15393;SDS011;7795;47.986;11.868;2024-02-28T01:16:32;11.13;;;9.43;;
15393;SDS011;7795;47.986;11.868;2024-02-28T01:18:57;11.97;;;9.37;;
15393;SDS011;7795;47.986;11.868;2024-02-28T01:21:23;13.57;;;10.43;;
15393;SDS011;7795;47.986;11.868;2024-02-28T01:23:49;13.50;;;10.00;;
15393;SDS011;7795;47.986;11.868;2024-02-28T01:26:16;12.50;;;10.80;;
15393;SDS011;7795;47.986;11.868;2024-02-28T01:28:42;13.60;;;11.00;;
15393;SDS011;7795;47.986;11.868;2024-02-28T01:31:08;10.93;;;9.77;;
15393;SDS011;7795;47.986;11.868;2024-02-28T01:33:33;12.70;;;10.50;;
15393;SDS011;7795;47.986;11.868;2024-02-28T01:35:59;11.70;;;9.70;;
15393;SDS011;7795;47.986;11.868;2024-02-28T01:38:26;12.07;;;10.33;;
15393;SDS011;7795;47.986;11.868;2024-02-28T01:40:52;12.13;;;9.83;;
15393;SDS011;7795;47.986;11.868;2024-02-28T01:43:19;12.00;;;10.20;;
15393;SDS011;7795;47.986;11.868;2024-02-28T01:45:44;13.43;;;10.17;;
15393;SDS011;7795;47.986;11.868;2024-02-28T01:48:10;13.17;;;9.57;;
15393;SDS011;7795;47.986;11.868;2024-02-28T01:50:37;10.00;;;9.00;;
15393;SDS011;7795;47.986;11.868;2024-02-28T01:53:03;11.00;;;9.80;;
15393;SDS011;7795;47.986;11.868;2024-02-28T01:55:29;10.97;;;9.80;;
15393;SDS011;7795;47.986;11.868;2024-02-28T01:57:55;12.57;;;9.77;;
15393;SDS011;7795;47.986;11.868;2024-02-28T02:00:23;12.73;;;9.60;;
15393;SDS011;7795;47.986;11.868;2024-02-28T02:02:50;11.70;;;8.80;;
15393;SDS011;7795;47.986;11.868;2024-02-28T02:05:16;10.53;;;8.60;;
15393;SDS011;7795;47.986;11.868;2024-02-28T02:07:45;10.63;;;8.83;;
15393;SDS011;7795;47.986;11.868;2024-02-28T02:10:12;9.47;;;8.47;;
15393;SDS011;7795;47.986;11.868;2024-02-28T02:12:38;10.27;;;9.17;;
15393;SDS011;7795;47.986;11.868;2024-02-28T02:15:04;10.27;;;9.17;;
15393;SDS011;7795;47.986;11.868;2024-02-28T02:17:31;9.60;;;8.60;;
15393;SDS011;7795;47.986;11.868;2024-02-28T02:19:57;10.50;;;8.77;;
15393;SDS011;7795;47.986;11.868;2024-02-28T02:22:23;14.23;;;9.60;;
15393;SDS011;7795;47.986;11.868;2024-02-28T02:24:53;10.37;;;9.27;;
15393;SDS011;7795;47.986;11.868;2024-02-28T02:27:19;10.37;;;8.63;;
15393;SDS011;7795;47.986;11.868;2024-02-28T02:29:45;11.60;;;9.67;;
15393;SDS011;7795;47.986;11.868;2024-02-28T02:32:10;11.33;;;9.33;;
15393;SDS011;7795;47.986;11.868;2024-02-28T02:34:36;11.17;;;9.43;;
15393;SDS011;7795;47.986;11.868;2024-02-28T02:37:02;11.40;;;9.63;;
15393;SDS011;7795;47.986;11.868;2024-02-28T02:39:29;10.47;;;9.40;;
15393;SDS011;7795;47.986;11.868;2024-02-28T02:41:56;13.73;;;10.90;;
15393;SDS011;7795;47.986;11.868;2024-02-28T02:44:22;12.97;;;10.30;;
15393;SDS011;7795;47.986;11.868;2024-02-28T02:46:47;11.57;;;9.97;;
15393;SDS011;7795;47.986;11.868;2024-02-28T02:49:13;10.53;;;9.43;;
15393;SDS011;7795;47.986;11.868;2024-02-28T02:51:39;11.30;;;9.27;;
15393;SDS011;7795;47.986;11.868;2024-02-28T02:54:07;12.57;;;10.37;;
15393;SDS011;7795;47.986;11.868;2024-02-28T02:56:33;13.37;;;11.10;;
15393;SDS011;7795;47.986;11.868;2024-02-28T02:59:00;13.80;;;11.47;;
15393;SDS011;7795;47.986;11.868;2024-02-28T03:01:25;12.80;;;11.30;;
15393;SDS011;7795;47.986;11.868;2024-02-28T03:03:51;13.27;;;11.43;;
15393;SDS011;7795;47.986;11.868;2024-02-28T03:06:17;12.97;;;11.20;;
15393;SDS011;7795;47.986;11.868;2024-02-28T03:08:43;13.93;;;11.43;;
15393;SDS011;7795;47.986;11.868;2024-02-28T03:11:09;12.57;;;10.67;;
15393;SDS011;7795;47.986;11.868;2024-02-28T03:13:36;12.67;;;10.73;;
15393;SDS011;7795;47.986;11.868;2024-02-28T03:16:04;12.93;;;11.17;;
15393;SDS011;7795;47.986;11.868;2024-02-28T03:18:30;14.43;;;11.83;;
15393;SDS011;7795;47.986;11.868;2024-02-28T03:20:56;12.93;;;11.53;;
15393;SDS011;7795;47.986;11.868;2024-02-28T03:23:22;12.67;;;10.93;;
15393;SDS011;7795;47.986;11.868;2024-02-28T03:25:48;13.90;;;11.27;;
15393;SDS011;7795;47.986;11.868;2024-02-28T03:28:13;14.37;;;11.73;;
15393;SDS011;7795;47.986;11.868;2024-02-28T03:30:39;13.43;;;11.30;;
15393;SDS011;7795;47.986;11.868;2024-02-28T03:33:06;13.63;;;10.33;;
15393;SDS011;7795;47.986;11.868;2024-02-28T03:35:33;13.53;;;10.77;;
15393;SDS011;7795;47.986;11.868;2024-02-28T03:37:58;13.23;;;10.17;;
15393;SDS011;7795;47.986;11.868;2024-02-28T03:40:24;13.83;;;11.63;;
15393;SDS011;7795;47.986;11.868;2024-02-28T03:42:50;13.50;;;11.23;;
15393;SDS011;7795;47.986;11.868;2024-02-28T03:45:16;12.10;;;10.53;;
15393;SDS011;7795;47.986;11.868;2024-02-28T03:47:42;12.17;;;10.60;;
15393;SDS011;7795;47.986;11.868;2024-02-28T03:50:09;17.60;;;11.63;;
15393;SDS011;7795;47.986;11.868;2024-02-28T03:52:35;15.70;;;11.83;;
15393;SDS011;7795;47.986;11.868;2024-02-28T03:55:01;14.93;;;11.37;;
15393;SDS011;7795;47.986;11.868;2024-02-28T03:57:26;14.97;;;12.20;;
15393;SDS011;7795;47.986;11.868;2024-02-28T03:59:52;14.57;;;12.40;;
15393;SDS011;7795;47.986;11.868;2024-02-28T04:02:18;14.07;;;12.00;;
15393;SDS011;7795;47.986;11.868;2024-02-28T04:04:44;15.00;;;12.27;;
15393;SDS011;7795;47.986;11.868;2024-02-28T04:07:11;13.10;;;11.03;;
15393;SDS011;7795;47.986;11.868;2024-02-28T04:09:37;13.47;;;11.43;;
15393;SDS011;7795;47.986;11.868;2024-02-28T04:12:02;15.80;;;11.37;;
15393;SDS011;7795;47.986;11.868;2024-02-28T04:14:28;15.47;;;11.87;;
15393;SDS011;7795;47.986;11.868;2024-02-28T04:16:54;14.70;;;11.70;;
15393;SDS011;7795;47.986;11.868;2024-02-28T04:19:20;14.67;;;12.17;;
15393;SDS011;7795;47.986;11.868;2024-02-28T04:21:46;14.40;;;11.47;;
15393;SDS011;7795;47.986;11.868;2024-02-28T04:24:13;13.70;;;12.30;;
15393;SDS011;7795;47.986;11.868;2024-02-28T04:26:38;16.40;;;12.30;;
15393;SDS011;7795;47.986;11.868;2024-02-28T04:29:04;13.83;;;11.50;;
15393;SDS011;7795;47.986;11.868;2024-02-28T04:31:32;13.77;;;11.70;;
15393;SDS011;7795;47.986;11.868;2024-02-28T04:33:58;15.23;;;11.73;;
15393;SDS011;7795;47.986;11.868;2024-02-28T04:36:24;15.00;;;12.30;;
15393;SDS011;7795;47.986;11.868;2024-02-28T04:38:50;13.10;;;11.07;;
15393;SDS011;7795;47.986;11.868;2024-02-28T04:41:17;14.27;;;10.63;;
15393;SDS011;7795;47.986;11.868;2024-02-28T04:43:43;16.43;;;12.73;;
15393;SDS011;7795;47.986;11.868;2024-02-28T04:46:09;14.17;;;11.97;;
15393;SDS011;7795;47.986;11.868;2024-02-28T04:48:34;13.93;;;11.30;;
15393;SDS011;7795;47.986;11.868;2024-02-28T04:51:00;16.37;;;12.70;;
15393;SDS011;7795;47.986;11.868;2024-02-28T04:53:27;15.73;;;13.03;;
15393;SDS011;7795;47.986;11.868;2024-02-28T04:55:53;14.90;;;12.50;;
15393;SDS011;7795;47.986;11.868;2024-02-28T04:58:20;18.70;;;14.40;;
15393;SDS011;7795;47.986;11.868;2024-02-28T05:00:46;16.70;;;14.40;;
15393;SDS011;7795;47.986;11.868;2024-02-28T05:03:12;17.43;;;13.97;;
15393;SDS011;7795;47.986;11.868;2024-02-28T05:05:37;18.27;;;14.57;;
15393;SDS011;7795;47.986;11.868;2024-02-28T05:08:03;21.73;;;15.70;;
15393;SDS011;7795;47.986;11.868;2024-02-28T05:10:29;19.90;;;15.87;;
15393;SDS011;7795;47.986;11.868;2024-02-28T05:12:55;18.97;;;15.00;;
15393;SDS011;7795;47.986;11.868;2024-02-28T05:15:22;18.83;;;14.70;;
15393;SDS011;7795;47.986;11.868;2024-02-28T05:17:49;19.13;;;16.10;;
15393;SDS011;7795;47.986;11.868;2024-02-28T05:20:15;20.60;;;16.53;;
15393;SDS011;7795;47.986;11.868;2024-02-28T05:22:41;23.57;;;18.20;;
15393;SDS011;7795;47.986;11.868;2024-02-28T05:25:07;22.17;;;17.37;;
15393;SDS011;7795;47.986;11.868;2024-02-28T05:27:33;22.73;;;17.43;;
15393;SDS011;7795;47.986;11.868;2024-02-28T05:29:59;22.43;;;17.13;;
15393;SDS011;7795;47.986;11.868;2024-02-28T05:32:27;24.77;;;17.50;;
15393;SDS011;7795;47.986;11.868;2024-02-28T05:34:53;23.30;;;16.43;;
15393;SDS011;7795;47.986;11.868;2024-02-28T05:37:18;24.33;;;17.80;;
15393;SDS011;7795;47.986;11.868;2024-02-28T05:39:44;24.80;;;18.30;;
15393;SDS011;7795;47.986;11.868;2024-02-28T05:42:10;27.37;;;19.17;;
15393;SDS011;7795;47.986;11.868;2024-02-28T05:44:36;25.80;;;18.17;;
15393;SDS011;7795;47.986;11.868;2024-02-28T05:47:01;24.73;;;17.23;;
15393;SDS011;7795;47.986;11.868;2024-02-28T05:49:28;25.33;;;17.93;;
15393;SDS011;7795;47.986;11.868;2024-02-28T05:51:54;25.73;;;18.00;;
15393;SDS011;7795;47.986;11.868;2024-02-28T05:54:21;28.87;;;18.97;;
15393;SDS011;7795;47.986;11.868;2024-02-28T05:56:46;21.50;;;16.27;;
15393;SDS011;7795;47.986;11.868;2024-02-28T05:59:13;24.70;;;18.30;;
15393;SDS011;7795;47.986;11.868;2024-02-28T06:01:39;23.73;;;15.83;;
15393;SDS011;7795;47.986;11.868;2024-02-28T06:04:05;23.00;;;16.30;;
15393;SDS011;7795;47.986;11.868;2024-02-28T06:06:33;21.20;;;15.20;;
15393;SDS011;7795;47.986;11.868;2024-02-28T06:08:59;24.33;;;16.40;;
15393;SDS011;7795;47.986;11.868;2024-02-28T06:11:24;23.93;;;15.97;;
15393;SDS011;7795;47.986;11.868;2024-02-28T06:13:51;22.67;;;16.50;;
15393;SDS011;7795;47.986;11.868;2024-02-28T06:16:16;20.47;;;16.60;;
15393;SDS011;7795;47.986;11.868;2024-02-28T06:18:43;22.77;;;16.60;;
15393;SDS011;7795;47.986;11.868;2024-02-28T06:21:09;22.27;;;16.77;;
15393;SDS011;7795;47.986;11.868;2024-02-28T06:23:36;22.60;;;16.17;;
15393;SDS011;7795;47.986;11.868;2024-02-28T06:26:02;21.70;;;16.10;;
15393;SDS011;7795;47.986;11.868;2024-02-28T06:28:28;22.53;;;17.03;;
15393;SDS011;7795;47.986;11.868;2024-02-28T06:30:54;20.80;;;15.20;;
15393;SDS011;7795;47.986;11.868;2024-02-28T06:33:19;20.87;;;15.63;;
15393;SDS011;7795;47.986;11.868;2024-02-28T06:35:45;23.20;;;17.20;;
15393;SDS011;7795;47.986;11.868;2024-02-28T06:38:11;22.73;;;16.80;;
15393;SDS011;7795;47.986;11.868;2024-02-28T06:40:38;22.10;;;17.20;;
15393;SDS011;7795;47.986;11.868;2024-02-28T06:43:04;21.77;;;16.77;;
15393;SDS011;7795;47.986;11.868;2024-02-28T06:45:30;21.53;;;16.67;;
15393;SDS011;7795;47.986;11.868;2024-02-28T06:47:55;25.17;;;17.63;;
15393;SDS011;7795;47.986;11.868;2024-02-28T06:50:22;20.10;;;16.33;;
15393;SDS011;7795;47.986;11.868;2024-02-28T06:52:47;22.30;;;16.87;;
15393;SDS011;7795;47.986;11.868;2024-02-28T06:55:13;24.67;;;18.53;;
15393;SDS011;7795;47.986;11.868;2024-02-28T06:57:41;22.90;;;16.87;;
15393;SDS011;7795;47.986;11.868;2024-02-28T07:00:08;22.57;;;16.27;;
15393;SDS011;7795;47.986;11.868;2024-02-28T07:02:34;21.57;;;15.73;;
15393;SDS011;7795;47.986;11.868;2024-02-28T07:05:00;24.00;;;17.97;;
15393;SDS011;7795;47.986;11.868;2024-02-28T07:07:26;22.80;;;17.37;;
15393;SDS011;7795;47.986;11.868;2024-02-28T07:09:52;20.87;;;16.60;;
15393;SDS011;7795;47.986;11.868;2024-02-28T07:12:18;23.00;;;17.00;;
15393;SDS011;7795;47.986;11.868;2024-02-28T07:14:45;20.77;;;16.93;;
15393;SDS011;7795;47.986;11.868;2024-02-28T07:17:11;22.20;;;16.23;;
15393;SDS011;7795;47.986;11.868;2024-02-28T07:19:36;21.27;;;16.90;;
15393;SDS011;7795;47.986;11.868;2024-02-28T07:22:03;23.67;;;17.77;;
15393;SDS011;7795;47.986;11.868;2024-02-28T07:24:30;22.47;;;17.07;;
15393;SDS011;7795;47.986;11.868;2024-02-28T07:26:56;22.47;;;17.70;;
15393;SDS011;7795;47.986;11.868;2024-02-28T07:29:22;22.37;;;17.90;;
15393;SDS011;7795;47.986;11.868;2024-02-28T07:31:50;21.80;;;16.80;;
15393;SDS011;7795;47.986;11.868;2024-02-28T07:34:16;21.07;;;16.87;;
15393;SDS011;7795;47.986;11.868;2024-02-28T07:36:41;18.83;;;14.97;;
15393;SDS011;7795;47.986;11.868;2024-02-28T07:39:07;20.30;;;16.13;;
15393;SDS011;7795;47.986;11.868;2024-02-28T07:41:37;22.70;;;17.07;;
15393;SDS011;7795;47.986;11.868;2024-02-28T07:44:03;20.23;;;15.77;;
15393;SDS011;7795;47.986;11.868;2024-02-28T07:46:29;21.00;;;16.33;;
15393;SDS011;7795;47.986;11.868;2024-02-28T07:48:56;22.27;;;18.03;;
15393;SDS011;7795;47.986;11.868;2024-02-28T07:51:22;22.73;;;17.50;;
15393;SDS011;7795;47.986;11.868;2024-02-28T07:53:48;22.17;;;16.83;;
15393;SDS011;7795;47.986;11.868;2024-02-28T07:56:16;23.33;;;17.27;;
15393;SDS011;7795;47.986;11.868;2024-02-28T07:58:43;24.67;;;18.10;;
15393;SDS011;7795;47.986;11.868;2024-02-28T08:01:10;22.90;;;18.10;;
15393;SDS011;7795;47.986;11.868;2024-02-28T08:03:35;23.67;;;18.37;;
15393;SDS011;7795;47.986;11.868;2024-02-28T08:06:03;21.57;;;17.63;;
15393;SDS011;7795;47.986;11.868;2024-02-28T08:08:29;21.63;;;18.00;;
15393;SDS011;7795;47.986;11.868;2024-02-28T08:10:55;24.07;;;19.07;;
15393;SDS011;7795;47.986;11.868;2024-02-28T08:13:20;23.83;;;18.80;;
15393;SDS011;7795;47.986;11.868;2024-02-28T08:15:46;23.13;;;17.37;;
15393;SDS011;7795;47.986;11.868;2024-02-28T08:18:12;23.87;;;18.17;;
15393;SDS011;7795;47.986;11.868;2024-02-28T08:20:38;26.90;;;20.20;;
15393;SDS011;7795;47.986;11.868;2024-02-28T08:23:05;23.77;;;18.63;;
15393;SDS011;7795;47.986;11.868;2024-02-28T08:25:31;22.97;;;18.90;;
15393;SDS011;7795;47.986;11.868;2024-02-28T08:27:57;25.10;;;18.63;;
15393;SDS011;7795;47.986;11.868;2024-02-28T08:30:23;26.83;;;18.03;;
15393;SDS011;7795;47.986;11.868;2024-02-28T08:32:50;23.93;;;19.27;;
15393;SDS011;7795;47.986;11.868;2024-02-28T08:35:17;27.20;;;20.10;;
15393;SDS011;7795;47.986;11.868;2024-02-28T08:37:44;25.03;;;19.50;;
15393;SDS011;7795;47.986;11.868;2024-02-28T08:40:11;23.97;;;18.77;;
15393;SDS011;7795;47.986;11.868;2024-02-28T08:42:37;24.60;;;18.50;;
15393;SDS011;7795;47.986;11.868;2024-02-28T08:45:03;23.00;;;18.03;;
15393;SDS011;7795;47.986;11.868;2024-02-28T08:47:31;28.27;;;20.03;;
15393;SDS011;7795;47.986;11.868;2024-02-28T08:49:57;25.33;;;19.40;;
15393;SDS011;7795;47.986;11.868;2024-02-28T08:52:22;26.27;;;20.60;;
15393;SDS011;7795;47.986;11.868;2024-02-28T08:54:48;27.07;;;20.03;;
15393;SDS011;7795;47.986;11.868;2024-02-28T08:57:15;27.37;;;20.03;;
15393;SDS011;7795;47.986;11.868;2024-02-28T08:59:41;25.13;;;19.90;;
15393;SDS011;7795;47.986;11.868;2024-02-28T09:02:07;25.80;;;20.47;;
15393;SDS011;7795;47.986;11.868;2024-02-28T09:04:33;37.87;;;20.97;;
15393;SDS011;7795;47.986;11.868;2024-02-28T09:06:59;28.90;;;20.00;;
15393;SDS011;7795;47.986;11.868;2024-02-28T09:09:25;27.83;;;21.07;;
15393;SDS011;7795;47.986;11.868;2024-02-28T09:11:53;29.10;;;20.57;;
15393;SDS011;7795;47.986;11.868;2024-02-28T09:14:20;26.67;;;19.97;;
15393;SDS011;7795;47.986;11.868;2024-02-28T09:16:46;26.73;;;19.73;;
15393;SDS011;7795;47.986;11.868;2024-02-28T09:19:12;34.00;;;21.90;;
15393;SDS011;7795;47.986;11.868;2024-02-28T09:21:38;32.47;;;22.07;;
15393;SDS011;7795;47.986;11.868;2024-02-28T09:24:04;32.97;;;21.57;;
15393;SDS011;7795;47.986;11.868;2024-02-28T09:26:30;26.27;;;20.13;;
15393;SDS011;7795;47.986;11.868;2024-02-28T09:28:56;27.17;;;20.27;;
15393;SDS011;7795;47.986;11.868;2024-02-28T09:31:23;25.20;;;19.83;;
15393;SDS011;7795;47.986;11.868;2024-02-28T09:33:49;30.53;;;21.13;;
15393;SDS011;7795;47.986;11.868;2024-02-28T09:36:15;27.90;;;20.60;;
15393;SDS011;7795;47.986;11.868;2024-02-28T09:38:41;27.67;;;21.20;;
15393;SDS011;7795;47.986;11.868;2024-02-28T09:41:07;28.50;;;21.37;;
15393;SDS011;7795;47.986;11.868;2024-02-28T09:43:35;31.93;;;23.27;;
15393;SDS011;7795;47.986;11.868;2024-02-28T09:46:05;32.13;;;24.10;;
15393;SDS011;7795;47.986;11.868;2024-02-28T09:48:38;32.20;;;23.20;;
15393;SDS011;7795;47.986;11.868;2024-02-28T09:51:04;33.93;;;23.30;;
15393;SDS011;7795;47.986;11.868;2024-02-28T09:53:31;28.87;;;21.90;;
15393;SDS011;7795;47.986;11.868;2024-02-28T09:55:57;29.43;;;21.50;;
15393;SDS011;7795;47.986;11.868;2024-02-28T09:58:24;31.83;;;21.87;;
15393;SDS011;7795;47.986;11.868;2024-02-28T10:00:51;28.67;;;21.40;;
15393;SDS011;7795;47.986;11.868;2024-02-28T10:03:24;32.60;;;23.00;;
15393;SDS011;7795;47.986;11.868;2024-02-28T10:05:52;31.00;;;21.97;;
15393;SDS011;7795;47.986;11.868;2024-02-28T10:08:18;27.80;;;21.53;;
15393;SDS011;7795;47.986;11.868;2024-02-28T10:10:47;29.03;;;20.33;;
15393;SDS011;7795;47.986;11.868;2024-02-28T10:13:13;30.37;;;21.00;;
15393;SDS011;7795;47.986;11.868;2024-02-28T10:15:40;28.87;;;19.63;;
15393;SDS011;7795;47.986;11.868;2024-02-28T10:18:06;27.03;;;19.73;;
15393;SDS011;7795;47.986;11.868;2024-02-28T10:20:32;26.73;;;20.70;;
15393;SDS011;7795;47.986;11.868;2024-02-28T10:22:59;27.83;;;20.93;;
15393;SDS011;7795;47.986;11.868;2024-02-28T10:25:28;29.97;;;20.37;;
15393;SDS011;7795;47.986;11.868;2024-02-28T10:27:58;26.23;;;20.70;;
15393;SDS011;7795;47.986;11.868;2024-02-28T10:30:24;28.80;;;20.27;;
15393;SDS011;7795;47.986;11.868;2024-02-28T10:32:50;26.87;;;20.23;;
15393;SDS011;7795;47.986;11.868;2024-02-28T10:35:16;29.40;;;21.40;;
15393;SDS011;7795;47.986;11.868;2024-02-28T10:37:44;29.30;;;21.83;;
15393;SDS011;7795;47.986;11.868;2024-02-28T10:40:12;29.67;;;20.87;;
15393;SDS011;7795;47.986;11.868;2024-02-28T10:42:39;29.13;;;21.43;;
15393;SDS011;7795;47.986;11.868;2024-02-28T10:45:08;27.10;;;20.77;;
15393;SDS011;7795;47.986;11.868;2024-02-28T10:47:36;25.43;;;19.37;;
15393;SDS011;7795;47.986;11.868;2024-02-28T10:50:03;27.73;;;20.80;;
15393;SDS011;7795;47.986;11.868;2024-02-28T10:52:29;27.07;;;20.53;;
15393;SDS011;7795;47.986;11.868;2024-02-28T10:54:59;27.83;;;19.93;;
15393;SDS011;7795;47.986;11.868;2024-02-28T10:57:28;29.13;;;20.43;;
15393;SDS011;7795;47.986;11.868;2024-02-28T10:59:55;25.57;;;18.67;;
15393;SDS011;7795;47.986;11.868;2024-02-28T11:02:23;29.63;;;19.57;;
15393;SDS011;7795;47.986;11.868;2024-02-28T11:04:51;26.17;;;19.07;;
15393;SDS011;7795;47.986;11.868;2024-02-28T11:07:19;28.97;;;20.63;;
15393;SDS011;7795;47.986;11.868;2024-02-28T11:09:45;27.37;;;19.80;;
15393;SDS011;7795;47.986;11.868;2024-02-28T11:12:23;25.53;;;19.73;;
15393;SDS011;7795;47.986;11.868;2024-02-28T11:14:56;24.33;;;18.10;;
15393;SDS011;7795;47.986;11.868;2024-02-28T11:17:25;36.47;;;22.20;;
15393;SDS011;7795;47.986;11.868;2024-02-28T11:19:53;31.37;;;19.50;;
15393;SDS011;7795;47.986;11.868;2024-02-28T11:22:18;25.47;;;19.27;;
15393;SDS011;7795;47.986;11.868;2024-02-28T11:24:46;28.17;;;20.13;;
15393;SDS011;7795;47.986;11.868;2024-02-28T11:27:13;26.27;;;20.03;;
15393;SDS011;7795;47.986;11.868;2024-02-28T11:29:42;27.17;;;20.77;;
15393;SDS011;7795;47.986;11.868;2024-02-28T11:32:11;26.13;;;19.90;;
15393;SDS011;7795;47.986;11.868;2024-02-28T11:34:38;28.30;;;20.87;;
15393;SDS011;7795;47.986;11.868;2024-02-28T11:37:05;27.77;;;19.30;;
15393;SDS011;7795;47.986;11.868;2024-02-28T11:39:33;31.17;;;20.60;;
15393;SDS011;7795;47.986;11.868;2024-02-28T11:42:08;29.20;;;19.47;;
15393;SDS011;7795;47.986;11.868;2024-02-28T11:44:35;26.93;;;19.23;;
15393;SDS011;7795;47.986;11.868;2024-02-28T11:47:00;32.53;;;21.73;;
15393;SDS011;7795;47.986;11.868;2024-02-28T11:49:29;30.17;;;21.63;;
15393;SDS011;7795;47.986;11.868;2024-02-28T11:51:58;29.57;;;22.00;;
15393;SDS011;7795;47.986;11.868;2024-02-28T11:54:24;30.77;;;22.10;;
15393;SDS011;7795;47.986;11.868;2024-02-28T11:56:49;29.23;;;21.10;;
15393;SDS011;7795;47.986;11.868;2024-02-28T11:59:15;25.57;;;19.67;;
15393;SDS011;7795;47.986;11.868;2024-02-28T12:01:42;30.93;;;22.07;;
15393;SDS011;7795;47.986;11.868;2024-02-28T12:04:12;33.03;;;20.83;;
15393;SDS011;7795;47.986;11.868;2024-02-28T12:06:40;28.33;;;20.17;;
15393;SDS011;7795;47.986;11.868;2024-02-28T12:09:06;30.40;;;22.03;;
15393;SDS011;7795;47.986;11.868;2024-02-28T12:11:36;26.47;;;19.63;;
15393;SDS011;7795;47.986;11.868;2024-02-28T12:14:02;27.97;;;21.00;;
15393;SDS011;7795;47.986;11.868;2024-02-28T12:16:29;26.17;;;19.20;;
15393;SDS011;7795;47.986;11.868;2024-02-28T12:18:55;28.43;;;19.50;;
15393;SDS011;7795;47.986;11.868;2024-02-28T12:21:21;29.57;;;20.27;;
15393;SDS011;7795;47.986;11.868;2024-02-28T12:23:48;29.90;;;21.43;;
15393;SDS011;7795;47.986;11.868;2024-02-28T12:26:16;30.90;;;20.40;;
15393;SDS011;7795;47.986;11.868;2024-02-28T12:28:43;26.57;;;19.97;;
15393;SDS011;7795;47.986;11.868;2024-02-28T12:31:09;28.63;;;20.13;;
15393;SDS011;7795;47.986;11.868;2024-02-28T12:33:36;26.40;;;20.23;;
15393;SDS011;7795;47.986;11.868;2024-02-28T12:36:02;26.33;;;18.80;;
15393;SDS011;7795;47.986;11.868;2024-02-28T12:38:29;26.53;;;20.50;;
15393;SDS011;7795;47.986;11.868;2024-02-28T12:40:57;27.80;;;20.27;;
15393;SDS011;7795;47.986;11.868;2024-02-28T12:43:22;28.20;;;19.80;;
15393;SDS011;7795;47.986;11.868;2024-02-28T12:45:50;27.57;;;19.23;;
15393;SDS011;7795;47.986;11.868;2024-02-28T12:48:16;23.23;;;18.13;;
15393;SDS011;7795;47.986;11.868;2024-02-28T12:50:41;26.57;;;18.73;;
15393;SDS011;7795;47.986;11.868;2024-02-28T12:53:07;28.87;;;20.17;;
15393;SDS011;7795;47.986;11.868;2024-02-28T12:55:33;30.77;;;21.00;;
15393;SDS011;7795;47.986;11.868;2024-02-28T12:58:00;24.90;;;19.87;;
15393;SDS011;7795;47.986;11.868;2024-02-28T13:00:29;25.53;;;18.67;;
15393;SDS011;7795;47.986;11.868;2024-02-28T13:02:55;29.17;;;20.27;;
15393;SDS011;7795;47.986;11.868;2024-02-28T13:05:21;29.63;;;19.70;;
15393;SDS011;7795;47.986;11.868;2024-02-28T13:07:47;26.67;;;19.43;;
15393;SDS011;7795;47.986;11.868;2024-02-28T13:10:12;26.00;;;19.70;;
15393;SDS011;7795;47.986;11.868;2024-02-28T13:12:38;27.27;;;21.47;;
15393;SDS011;7795;47.986;11.868;2024-02-28T13:15:06;29.73;;;21.70;;
15393;SDS011;7795;47.986;11.868;2024-02-28T13:17:33;30.07;;;22.53;;
15393;SDS011;7795;47.986;11.868;2024-02-28T13:19:59;25.57;;;21.43;;
15393;SDS011;7795;47.986;11.868;2024-02-28T13:22:24;32.63;;;21.43;;
15393;SDS011;7795;47.986;11.868;2024-02-28T13:24:50;36.57;;;22.93;;
15393;SDS011;7795;47.986;11.868;2024-02-28T13:27:16;31.37;;;22.37;;
15393;SDS011;7795;47.986;11.868;2024-02-28T13:29:42;32.13;;;21.57;;
15393;SDS011;7795;47.986;11.868;2024-02-28T13:32:09;33.27;;;22.20;;
15393;SDS011;7795;47.986;11.868;2024-02-28T13:34:35;27.53;;;21.40;;
15393;SDS011;7795;47.986;11.868;2024-02-28T13:37:00;27.47;;;21.23;;
15393;SDS011;7795;47.986;11.868;2024-02-28T13:39:26;27.63;;;20.97;;
15393;SDS011;7795;47.986;11.868;2024-02-28T13:41:52;27.80;;;20.40;;
15393;SDS011;7795;47.986;11.868;2024-02-28T13:44:18;27.43;;;20.77;;
15393;SDS011;7795;47.986;11.868;2024-02-28T13:46:44;30.43;;;21.00;;
15393;SDS011;7795;47.986;11.868;2024-02-28T13:49:11;26.93;;;19.90;;
15393;SDS011;7795;47.986;11.868;2024-02-28T13:51:38;26.53;;;19.03;;
15393;SDS011;7795;47.986;11.868;2024-02-28T13:54:04;27.70;;;20.67;;
15393;SDS011;7795;47.986;11.868;2024-02-28T13:56:30;27.13;;;20.30;;
15393;SDS011;7795;47.986;11.868;2024-02-28T13:58:56;30.90;;;21.50;;
15393;SDS011;7795;47.986;11.868;2024-02-28T14:01:22;25.50;;;19.60;;
15393;SDS011;7795;47.986;11.868;2024-02-28T14:03:48;28.43;;;21.70;;
15393;SDS011;7795;47.986;11.868;2024-02-28T14:06:15;27.87;;;21.60;;
15393;SDS011;7795;47.986;11.868;2024-02-28T14:08:41;29.47;;;21.13;;
15393;SDS011;7795;47.986;11.868;2024-02-28T14:11:07;26.37;;;20.43;;
15393;SDS011;7795;47.986;11.868;2024-02-28T14:13:33;25.63;;;19.53;;
15393;SDS011;7795;47.986;11.868;2024-02-28T14:15:59;26.00;;;18.23;;
15393;SDS011;7795;47.986;11.868;2024-02-28T14:18:25;26.27;;;20.63;;